createdAt,value
2019-04-30T00:01:22.503Z,5.50
2019-04-30T00:04:07.992Z,5.50
2019-04-30T00:06:39.491Z,5.40
2019-04-30T00:09:15.224Z,5.40
2019-04-30T00:11:40.977Z,5.40
2019-04-30T00:14:10.404Z,5.40
2019-04-30T00:16:40.043Z,5.40
2019-04-30T00:19:10.608Z,5.40
2019-04-30T00:21:40.706Z,5.40
2019-04-30T00:24:10.322Z,5.40
2019-04-30T00:26:40.052Z,5.40
2019-04-30T00:29:10.886Z,5.40
2019-04-30T00:31:40.215Z,5.40
2019-04-30T00:34:09.543Z,5.40
2019-04-30T00:36:38.871Z,5.50
2019-04-30T00:39:13.116Z,5.40
2019-04-30T00:41:39.921Z,5.40
2019-04-30T00:44:10.294Z,5.40
2019-04-30T00:46:39.726Z,5.50
2019-04-30T00:49:15.905Z,5.50
2019-04-30T00:51:40.160Z,5.50
2019-04-30T00:54:09.492Z,5.40
2019-04-30T00:56:38.819Z,5.40
2019-04-30T00:59:10.467Z,5.50
2019-04-30T01:02:00.876Z,5.50
2019-04-30T01:04:34.973Z,5.50
2019-04-30T01:07:08.524Z,5.40
2019-04-30T01:09:39.599Z,5.50
2019-04-30T01:12:07.002Z,5.50
2019-04-30T01:14:36.322Z,5.50
2019-04-30T01:17:08.889Z,5.70
2019-04-30T01:19:36.907Z,5.60
2019-04-30T01:22:06.234Z,5.50
2019-04-30T01:24:35.567Z,5.60
2019-04-30T01:27:06.792Z,5.60
2019-04-30T01:29:41.011Z,5.70
2019-04-30T01:32:10.389Z,5.60
2019-04-30T01:34:39.512Z,5.50
2019-04-30T01:37:08.980Z,5.50
2019-04-30T01:39:39.158Z,5.50
2019-04-30T01:42:11.354Z,5.50
2019-04-30T01:44:43.393Z,5.50
2019-04-30T01:47:10.682Z,5.50
2019-04-30T01:49:42.675Z,5.40
2019-04-30T01:52:11.055Z,5.40
2019-04-30T01:54:40.379Z,5.50
2019-04-30T01:57:33.242Z,5.50
2019-04-30T02:00:13.503Z,5.60
2019-04-30T02:02:43.469Z,5.60
2019-04-30T02:05:12.871Z,5.60
2019-04-30T02:07:42.274Z,5.60
2019-04-30T02:10:12.375Z,5.50
2019-04-30T02:12:41.690Z,5.40
2019-04-30T02:15:11.419Z,5.50
2019-04-30T02:17:40.743Z,5.60
2019-04-30T02:20:10.163Z,5.60
2019-04-30T02:22:39.486Z,5.50
2019-04-30T02:25:09.757Z,5.50
2019-04-30T02:27:39.163Z,5.60
2019-04-30T02:30:11.111Z,5.50
2019-04-30T02:32:40.275Z,5.50
2019-04-30T02:35:29.312Z,5.50
2019-04-30T02:38:15.310Z,5.30
2019-04-30T02:40:45.707Z,5.30
2019-04-30T02:43:16.344Z,5.20
2019-04-30T02:45:49.859Z,5.30
2019-04-30T02:48:22.183Z,5.30
2019-04-30T02:50:53.337Z,5.20
2019-04-30T02:54:00.377Z,5.20
2019-04-30T02:56:30.018Z,5.10
2019-04-30T02:59:03.164Z,5.10
2019-04-30T03:01:30.755Z,5.10
2019-04-30T03:04:00.143Z,5.00
2019-04-30T03:06:30.408Z,5.00
2019-04-30T03:09:01.152Z,5.00
2019-04-30T03:11:30.767Z,5.00
2019-04-30T03:14:00.084Z,5.00
2019-04-30T03:16:40.291Z,5.10
2019-04-30T03:19:22.248Z,5.20
2019-04-30T03:21:55.887Z,5.20
2019-04-30T03:24:25.275Z,5.30
2019-04-30T03:26:54.604Z,5.40
2019-04-30T03:29:24.203Z,5.40
2019-04-30T03:31:54.366Z,5.40
2019-04-30T03:34:25.851Z,5.60
2019-04-30T03:36:54.811Z,5.70
2019-04-30T03:39:24.156Z,5.80
2019-04-30T03:41:53.479Z,5.80
2019-04-30T03:44:25.892Z,5.90
2019-04-30T03:46:53.984Z,5.90
2019-04-30T03:49:23.315Z,6.00
2019-04-30T03:51:52.639Z,6.10
2019-04-30T03:54:21.967Z,6.10
2019-04-30T03:56:52.951Z,6.20
2019-04-30T03:59:22.371Z,6.20
2019-04-30T04:02:04.703Z,6.20
2019-04-30T04:04:42.149Z,6.30
2019-04-30T04:07:45.638Z,6.30
2019-04-30T04:10:40.479Z,6.40
2019-04-30T04:13:10.333Z,6.40
2019-04-30T04:15:40.143Z,6.50
2019-04-30T04:18:10.638Z,6.60
2019-04-30T04:20:42.954Z,6.60
2019-04-30T04:23:11.370Z,6.60
2019-04-30T04:25:40.759Z,6.60
2019-04-30T04:28:10.257Z,6.50
2019-04-30T04:30:42.823Z,6.50
2019-04-30T04:33:10.720Z,6.40
2019-04-30T04:35:40.041Z,6.40
2019-04-30T04:38:12.292Z,6.50
2019-04-30T04:40:40.403Z,6.50
2019-04-30T04:43:10.415Z,6.50
2019-04-30T04:45:43.476Z,6.60
2019-04-30T04:48:11.010Z,6.60
2019-04-30T04:50:40.394Z,6.60
2019-04-30T04:53:11.572Z,6.70
2019-04-30T04:55:40.872Z,6.70
2019-04-30T04:58:12.793Z,6.80
2019-04-30T05:00:41.347Z,6.80
2019-04-30T05:03:22.939Z,6.80
2019-04-30T05:05:52.340Z,6.80
2019-04-30T05:08:21.663Z,6.90
2019-04-30T05:10:51.058Z,6.90
2019-04-30T05:13:20.379Z,7.00
2019-04-30T05:15:51.592Z,7.10
2019-04-30T05:18:22.743Z,7.10
2019-04-30T05:20:51.866Z,7.20
2019-04-30T05:23:21.885Z,7.20
2019-04-30T05:25:51.411Z,7.20
2019-04-30T05:28:20.819Z,7.20
2019-04-30T05:30:50.152Z,7.30
2019-04-30T05:33:19.482Z,7.30
2019-04-30T05:35:49.594Z,7.30
2019-04-30T05:38:19.044Z,7.30
2019-04-30T05:40:49.603Z,7.40
2019-04-30T05:43:19.364Z,7.30
2019-04-30T05:45:49.208Z,7.30
2019-04-30T05:48:18.744Z,7.50
2019-04-30T05:50:51.513Z,7.50
2019-04-30T05:53:19.202Z,7.60
2019-04-30T05:55:49.380Z,7.70
2019-04-30T05:58:19.824Z,7.70
2019-04-30T06:00:49.943Z,7.80
2019-04-30T06:03:27.563Z,7.90
2019-04-30T06:05:50.570Z,7.90
2019-04-30T06:08:22.186Z,8.00
2019-04-30T06:10:59.756Z,8.10
2019-04-30T06:13:50.495Z,8.30
2019-04-30T06:16:22.263Z,8.40
2019-04-30T06:18:51.582Z,8.50
2019-04-30T06:21:21.526Z,8.50
2019-04-30T06:23:51.110Z,8.60
2019-04-30T06:26:20.840Z,8.60
2019-04-30T06:28:50.335Z,8.60
2019-04-30T06:31:31.662Z,8.70
2019-04-30T06:33:50.836Z,8.80
2019-04-30T06:36:20.515Z,8.80
2019-04-30T06:38:49.842Z,8.90
2019-04-30T06:41:19.810Z,9.10
2019-04-30T06:43:49.938Z,9.20
2019-04-30T06:46:19.381Z,9.30
2019-04-30T06:48:51.024Z,9.40
2019-04-30T06:51:20.434Z,9.50
2019-04-30T06:53:51.360Z,9.70
2019-04-30T06:56:20.862Z,9.80
2019-04-30T06:58:52.400Z,10.10
2019-04-30T07:01:21.331Z,10.20
2019-04-30T07:03:50.737Z,10.30
2019-04-30T07:06:29.115Z,10.40
2019-04-30T07:09:19.732Z,10.50
2019-04-30T07:12:03.984Z,10.60
2019-04-30T07:14:33.461Z,10.60
2019-04-30T07:17:02.886Z,10.70
2019-04-30T07:19:43.450Z,10.80
2019-04-30T07:22:03.296Z,11.00
2019-04-30T07:24:32.691Z,11.10
2019-04-30T07:27:02.837Z,11.30
2019-04-30T07:29:32.278Z,11.50
2019-04-30T07:32:01.632Z,11.60
2019-04-30T07:34:36.645Z,11.70
2019-04-30T07:37:11.926Z,11.70
2019-04-30T07:39:33.515Z,11.80
2019-04-30T07:42:02.976Z,11.80
2019-04-30T07:44:36.402Z,12.00
2019-04-30T07:47:03.357Z,12.00
2019-04-30T07:49:46.776Z,12.20
2019-04-30T07:52:04.266Z,12.20
2019-04-30T07:54:34.040Z,12.40
2019-04-30T07:57:03.496Z,12.40
2019-04-30T07:59:32.895Z,12.40
2019-04-30T08:02:10.027Z,12.30
2019-04-30T08:04:51.420Z,12.30
2019-04-30T08:07:20.897Z,12.40
2019-04-30T08:09:50.293Z,12.50
2019-04-30T08:12:25.812Z,13.10
2019-04-30T08:14:50.664Z,13.20
2019-04-30T08:17:19.990Z,13.20
2019-04-30T08:19:49.323Z,13.60
2019-04-30T08:22:19.671Z,13.50
2019-04-30T08:24:49.295Z,13.80
2019-04-30T08:27:19.664Z,13.80
2019-04-30T08:29:50.002Z,13.80
2019-04-30T08:32:19.475Z,13.70
2019-04-30T08:34:50.132Z,13.60
2019-04-30T08:37:20.302Z,13.60
2019-04-30T08:39:49.882Z,13.80
2019-04-30T08:42:30.903Z,14.40
2019-04-30T08:44:50.351Z,14.90
2019-04-30T08:47:21.295Z,15.30
2019-04-30T08:49:50.868Z,15.20
2019-04-30T08:52:20.508Z,15.20
2019-04-30T08:54:50.094Z,15.20
2019-04-30T08:57:19.521Z,15.40
2019-04-30T08:59:49.476Z,15.50
2019-04-30T09:02:19.744Z,15.30
2019-04-30T09:04:52.486Z,15.60
2019-04-30T09:07:21.906Z,15.90
2019-04-30T09:09:51.239Z,15.40
2019-04-30T09:12:20.571Z,15.50
2019-04-30T09:14:49.907Z,15.50
2019-04-30T09:17:19.902Z,16.00
2019-04-30T09:19:49.391Z,16.10
2019-04-30T09:22:19.510Z,16.50
2019-04-30T09:24:49.720Z,16.80
2019-04-30T09:27:19.703Z,16.60
2019-04-30T09:29:49.368Z,17.00
2019-04-30T09:32:19.415Z,17.50
2019-04-30T09:34:49.011Z,17.10
2019-04-30T09:37:18.821Z,16.50
2019-04-30T09:39:49.402Z,16.90
2019-04-30T09:42:19.592Z,17.10
2019-04-30T09:44:49.396Z,17.30
2019-04-30T09:47:20.046Z,17.60
2019-04-30T09:49:49.632Z,18.20
2019-04-30T09:52:19.910Z,18.40
2019-04-30T09:54:50.189Z,18.40
2019-04-30T09:57:20.026Z,18.00
2019-04-30T09:59:49.438Z,17.70
2019-04-30T10:02:19.300Z,17.30
2019-04-30T10:04:49.311Z,17.10
2019-04-30T10:07:19.517Z,17.10
2019-04-30T10:09:50.879Z,17.80
2019-04-30T10:12:20.042Z,18.40
2019-04-30T10:14:49.648Z,18.50
2019-04-30T10:17:34.362Z,18.40
2019-04-30T10:20:04.420Z,18.00
2019-04-30T10:22:33.748Z,18.30
2019-04-30T10:25:03.074Z,18.80
2019-04-30T10:27:32.407Z,18.90
2019-04-30T10:30:02.207Z,19.20
2019-04-30T10:32:31.607Z,19.70
2019-04-30T10:35:00.959Z,19.60
2019-04-30T10:37:30.299Z,19.50
2019-04-30T10:39:59.865Z,19.20
2019-04-30T10:42:29.243Z,19.40
2019-04-30T10:45:00.314Z,19.30
2019-04-30T10:47:32.494Z,19.80
2019-04-30T10:50:00.871Z,19.20
2019-04-30T10:52:30.206Z,18.40
2019-04-30T10:54:59.628Z,18.30
2019-04-30T10:57:29.071Z,17.80
2019-04-30T10:59:58.764Z,17.30
2019-04-30T11:02:28.753Z,16.90
2019-04-30T11:04:59.272Z,16.70
2019-04-30T11:07:28.898Z,16.50
2019-04-30T11:09:58.845Z,16.10
2019-04-30T11:12:29.244Z,15.20
2019-04-30T11:14:58.720Z,14.70
2019-04-30T11:17:29.728Z,14.30
2019-04-30T11:19:59.382Z,13.90
2019-04-30T11:22:28.955Z,13.50
2019-04-30T11:25:02.440Z,13.50
2019-04-30T11:27:30.639Z,13.30
2019-04-30T11:30:03.570Z,13.20
2019-04-30T11:32:31.738Z,13.20
2019-04-30T11:35:01.239Z,13.20
2019-04-30T11:37:30.579Z,13.10
2019-04-30T11:39:59.923Z,13.00
2019-04-30T11:42:29.275Z,12.80
2019-04-30T11:44:58.662Z,12.80
2019-04-30T11:47:34.211Z,12.80
2019-04-30T11:50:04.959Z,12.80
2019-04-30T11:52:34.395Z,13.00
2019-04-30T11:55:03.858Z,13.10
2019-04-30T11:57:33.295Z,13.20
2019-04-30T12:00:02.731Z,13.20
2019-04-30T12:02:36.889Z,13.30
2019-04-30T12:05:07.058Z,13.10
2019-04-30T12:07:55.396Z,13.00
2019-04-30T12:10:39.190Z,13.00
2019-04-30T12:13:24.321Z,13.10
2019-04-30T12:15:54.141Z,13.10
2019-04-30T12:18:23.686Z,13.20
2019-04-30T12:20:53.003Z,13.10
2019-04-30T12:23:22.331Z,13.10
2019-04-30T12:25:51.663Z,13.10
2019-04-30T12:28:21.040Z,13.00
2019-04-30T12:30:50.413Z,12.90
2019-04-30T12:33:19.824Z,13.00
2019-04-30T12:35:51.234Z,13.00
2019-04-30T12:38:20.224Z,13.00
2019-04-30T12:40:49.623Z,13.10
2019-04-30T12:43:18.980Z,13.20
2019-04-30T12:46:01.632Z,13.50
2019-04-30T12:48:31.532Z,13.60
2019-04-30T12:51:12.310Z,13.40
2019-04-30T12:53:50.487Z,13.40
2019-04-30T12:56:41.578Z,13.20
2019-04-30T12:59:10.923Z,13.50
2019-04-30T13:01:40.332Z,14.40
2019-04-30T13:04:09.912Z,15.30
2019-04-30T13:06:39.814Z,15.10
2019-04-30T13:09:11.245Z,14.80
2019-04-30T13:11:41.950Z,15.00
2019-04-30T13:14:12.303Z,15.30
2019-04-30T13:16:42.058Z,15.80
2019-04-30T13:19:11.398Z,16.00
2019-04-30T13:21:40.710Z,16.00
2019-04-30T13:24:10.099Z,16.10
2019-04-30T13:26:39.722Z,16.30
2019-04-30T13:29:17.224Z,16.60
2019-04-30T13:31:50.145Z,16.90
2019-04-30T13:34:54.494Z,17.30
2019-04-30T13:37:23.891Z,16.90
2019-04-30T13:40:12.178Z,16.60
2019-04-30T13:42:44.521Z,15.90
2019-04-30T13:45:14.018Z,16.70
2019-04-30T13:47:43.348Z,17.10
2019-04-30T13:50:12.875Z,17.10
2019-04-30T13:52:42.206Z,17.00
2019-04-30T13:55:11.535Z,16.50
2019-04-30T13:57:40.929Z,16.20
2019-04-30T14:00:12.714Z,16.20
2019-04-30T14:02:46.997Z,16.80
2019-04-30T14:05:17.314Z,16.40
2019-04-30T14:08:14.734Z,16.90
2019-04-30T14:10:45.324Z,16.80
2019-04-30T14:13:14.651Z,17.20
2019-04-30T14:15:44.834Z,17.60
2019-04-30T14:18:14.156Z,17.60
2019-04-30T14:20:43.550Z,18.10
2019-04-30T14:23:12.883Z,17.30
2019-04-30T14:25:42.283Z,17.30
2019-04-30T14:28:11.603Z,18.50
2019-04-30T14:30:41.054Z,18.60
2019-04-30T14:33:22.732Z,17.70
2019-04-30T14:35:41.421Z,17.90
2019-04-30T14:38:10.746Z,17.90
2019-04-30T14:40:40.713Z,18.50
2019-04-30T14:43:41.675Z,18.50
2019-04-30T14:46:32.193Z,18.80
2019-04-30T14:49:17.859Z,18.40
2019-04-30T14:51:49.038Z,18.50
2019-04-30T14:54:24.710Z,18.40
2019-04-30T14:57:28.106Z,18.50
2019-04-30T15:00:19.087Z,18.50
2019-04-30T15:02:52.958Z,18.60
2019-04-30T15:05:22.563Z,18.20
2019-04-30T15:07:51.886Z,18.50
2019-04-30T15:10:21.811Z,17.80
2019-04-30T15:12:51.138Z,18.40
2019-04-30T15:15:20.578Z,18.10
2019-04-30T15:17:49.911Z,18.20
2019-04-30T15:20:19.801Z,18.30
2019-04-30T15:23:10.198Z,17.80
2019-04-30T15:25:39.531Z,17.60
2019-04-30T15:28:09.828Z,18.20
2019-04-30T15:30:41.860Z,18.50
2019-04-30T15:33:18.832Z,18.10
2019-04-30T15:35:50.070Z,17.80
2019-04-30T15:38:20.779Z,17.50
2019-04-30T15:40:50.186Z,17.40
2019-04-30T15:43:19.511Z,16.90
2019-04-30T15:45:49.448Z,16.60
2019-04-30T15:48:19.635Z,16.30
2019-04-30T15:50:49.323Z,16.30
2019-04-30T15:53:19.367Z,16.20
2019-04-30T15:55:48.785Z,16.30
2019-04-30T15:58:23.013Z,15.70
2019-04-30T16:00:52.435Z,15.30
2019-04-30T16:03:25.888Z,14.70
2019-04-30T16:05:55.296Z,14.40
2019-04-30T16:08:49.550Z,14.30
2019-04-30T16:11:36.278Z,14.30
2019-04-30T16:14:13.530Z,14.10
2019-04-30T16:16:45.837Z,14.20
2019-04-30T16:19:15.166Z,14.20
2019-04-30T16:21:44.511Z,14.10
2019-04-30T16:24:13.916Z,14.10
2019-04-30T16:26:50.022Z,14.00
2019-04-30T16:29:14.287Z,13.90
2019-04-30T16:31:43.686Z,13.80
2019-04-30T16:34:13.012Z,13.50
2019-04-30T16:36:42.355Z,13.60
2019-04-30T16:39:11.986Z,13.60
2019-04-30T16:41:41.315Z,13.50
2019-04-30T16:44:10.714Z,13.60
2019-04-30T16:46:40.051Z,13.50
2019-04-30T16:49:10.200Z,13.40
2019-04-30T16:51:40.423Z,13.40
2019-04-30T16:54:09.754Z,13.50
2019-04-30T16:56:39.080Z,13.40
2019-04-30T16:59:10.386Z,13.40
2019-04-30T17:01:39.823Z,13.30
2019-04-30T17:04:20.994Z,13.40
2019-04-30T17:06:58.674Z,13.60
2019-04-30T17:09:39.242Z,13.70
2019-04-30T17:12:16.886Z,13.60
2019-04-30T17:14:49.202Z,13.70
2019-04-30T17:17:18.600Z,13.70
2019-04-30T17:19:49.211Z,13.70
2019-04-30T17:22:18.635Z,13.60
2019-04-30T17:24:49.103Z,13.60
2019-04-30T17:27:21.961Z,13.30
2019-04-30T17:29:49.942Z,13.30
2019-04-30T17:32:19.355Z,13.20
2019-04-30T17:34:49.248Z,13.30
2019-04-30T17:37:19.034Z,13.20
2019-04-30T17:39:49.475Z,13.20
2019-04-30T17:42:19.519Z,13.20
2019-04-30T17:44:58.511Z,13.20
2019-04-30T17:47:19.909Z,13.20
2019-04-30T17:49:50.895Z,13.30
2019-04-30T17:52:21.738Z,13.30
2019-04-30T17:54:51.237Z,13.10
2019-04-30T17:57:31.371Z,13.10
2019-04-30T17:59:51.715Z,12.90
2019-04-30T18:02:22.634Z,12.80
2019-04-30T18:04:51.976Z,12.60
2019-04-30T18:07:21.374Z,12.40
2019-04-30T18:09:50.704Z,12.20
2019-04-30T18:12:20.111Z,12.00
2019-04-30T18:14:49.532Z,12.00
2019-04-30T18:17:19.262Z,12.00
2019-04-30T18:20:08.984Z,11.90
2019-04-30T18:23:02.970Z,11.80
2019-04-30T18:25:48.378Z,11.70
2019-04-30T18:28:19.109Z,11.70
2019-04-30T18:30:49.128Z,11.60
2019-04-30T18:33:18.531Z,11.40
2019-04-30T18:35:48.693Z,11.40
2019-04-30T18:38:18.175Z,11.20
2019-04-30T18:40:49.441Z,11.20
2019-04-30T18:43:20.548Z,11.20
2019-04-30T18:45:49.835Z,11.00
2019-04-30T18:48:19.575Z,11.00
2019-04-30T18:50:48.954Z,11.10
2019-04-30T18:53:22.362Z,11.00
2019-04-30T18:55:51.794Z,10.90
2019-04-30T18:58:21.195Z,10.80
2019-04-30T19:00:50.708Z,10.80
2019-04-30T19:03:21.915Z,10.70
2019-04-30T19:05:56.247Z,10.70
2019-04-30T19:08:31.535Z,10.50
2019-04-30T19:11:12.675Z,10.50
2019-04-30T19:13:59.289Z,10.50
2019-04-30T19:16:59.776Z,10.40
2019-04-30T19:19:40.958Z,10.40
2019-04-30T19:22:10.288Z,10.40
2019-04-30T19:24:52.711Z,10.30
2019-04-30T19:27:10.927Z,10.30
2019-04-30T19:29:40.257Z,10.30
2019-04-30T19:32:09.586Z,10.20
2019-04-30T19:34:39.101Z,10.20
2019-04-30T19:37:08.734Z,10.10
2019-04-30T19:39:39.234Z,10.00
2019-04-30T19:42:09.071Z,10.00
2019-04-30T19:44:39.473Z,9.90
2019-04-30T19:47:09.364Z,9.90
2019-04-30T19:49:40.675Z,9.90
2019-04-30T19:52:11.817Z,9.90
2019-04-30T19:54:40.774Z,9.90
2019-04-30T19:57:10.504Z,9.80
2019-04-30T19:59:39.827Z,9.80
2019-04-30T20:02:10.671Z,9.80
2019-04-30T20:04:42.144Z,9.70
2019-04-30T20:07:11.186Z,9.60
2019-04-30T20:09:42.980Z,9.50
2019-04-30T20:12:11.545Z,9.40
2019-04-30T20:14:40.942Z,9.40
2019-04-30T20:17:13.066Z,9.40
2019-04-30T20:19:41.335Z,9.20
2019-04-30T20:22:10.805Z,9.30
2019-04-30T20:24:40.188Z,9.20
2019-04-30T20:27:10.199Z,9.20
2019-04-30T20:29:40.887Z,9.20
2019-04-30T20:32:10.320Z,9.20
2019-04-30T20:34:39.675Z,9.10
2019-04-30T20:37:08.994Z,9.00
2019-04-30T20:39:50.274Z,9.00
2019-04-30T20:42:19.608Z,9.00
2019-04-30T20:44:49.088Z,8.90
2019-04-30T20:47:21.032Z,8.90
2019-04-30T20:49:49.574Z,8.80
2019-04-30T20:52:20.697Z,8.80
2019-04-30T20:54:50.185Z,8.70
2019-04-30T20:57:19.939Z,8.70
2019-04-30T20:59:49.408Z,8.70
2019-04-30T21:02:20.453Z,8.60
2019-04-30T21:04:50.914Z,8.60
2019-04-30T21:07:20.238Z,8.50
2019-04-30T21:09:49.634Z,8.60
2019-04-30T21:12:19.007Z,8.40
2019-04-30T21:14:48.612Z,8.40
2019-04-30T21:17:17.963Z,8.30
2019-04-30T21:19:47.299Z,8.30
2019-04-30T21:22:16.690Z,8.20
2019-04-30T21:24:46.006Z,8.10
2019-04-30T21:27:15.382Z,8.10
2019-04-30T21:29:44.782Z,8.00
2019-04-30T21:32:22.098Z,7.90
2019-04-30T21:35:19.529Z,7.90
2019-04-30T21:37:48.926Z,8.00
2019-04-30T21:40:19.582Z,7.90
2019-04-30T21:42:49.054Z,7.90
2019-04-30T21:45:18.375Z,7.90
2019-04-30T21:47:56.187Z,7.80
2019-04-30T21:50:20.148Z,7.80
2019-04-30T21:52:49.630Z,7.80
2019-04-30T21:55:19.810Z,7.70
2019-04-30T21:57:49.663Z,7.60
2019-04-30T22:00:39.691Z,7.60
2019-04-30T22:03:09.733Z,7.60
2019-04-30T22:05:39.187Z,7.60
2019-04-30T22:08:09.092Z,7.40
2019-04-30T22:10:38.590Z,7.50
2019-04-30T22:13:08.919Z,7.50
2019-04-30T22:15:38.390Z,7.50
2019-04-30T22:18:07.738Z,7.50
2019-04-30T22:20:38.765Z,7.50
2019-04-30T22:23:08.249Z,7.50
2019-04-30T22:25:39.249Z,7.40
2019-04-30T22:28:08.661Z,7.30
2019-04-30T22:30:38.013Z,7.30
2019-04-30T22:33:08.953Z,7.30
2019-04-30T22:35:47.884Z,7.30
2019-04-30T22:38:20.554Z,7.20
2019-04-30T22:40:49.887Z,7.10
2019-04-30T22:43:19.214Z,7.10
2019-04-30T22:45:53.567Z,7.10
2019-04-30T22:48:22.896Z,7.10
2019-04-30T22:50:52.246Z,7.10
2019-04-30T22:53:21.646Z,7.00
2019-04-30T22:55:50.978Z,6.90
2019-04-30T22:58:20.303Z,6.90
2019-04-30T23:00:51.174Z,7.00
2019-04-30T23:03:25.735Z,7.00
2019-04-30T23:05:55.070Z,7.00
2019-04-30T23:08:24.391Z,7.00
2019-04-30T23:10:53.711Z,6.90
2019-04-30T23:13:23.053Z,6.80
2019-04-30T23:15:54.603Z,6.80
2019-04-30T23:18:23.975Z,6.70
2019-04-30T23:20:53.370Z,6.80
2019-04-30T23:23:22.690Z,6.90
2019-04-30T23:25:52.093Z,6.90
2019-04-30T23:28:21.535Z,7.00
2019-04-30T23:30:50.959Z,7.00
2019-04-30T23:33:20.335Z,6.90
2019-04-30T23:35:49.661Z,6.90
2019-04-30T23:38:18.991Z,6.90
2019-04-30T23:40:50.744Z,6.90
2019-04-30T23:43:20.242Z,6.80
2019-04-30T23:45:49.575Z,6.80
2019-04-30T23:48:18.898Z,6.80
2019-04-30T23:50:48.228Z,6.80
2019-04-30T23:53:17.545Z,6.80
2019-04-30T23:55:46.862Z,6.90
2019-04-30T23:58:16.201Z,6.80
